sensor_id;sensor_type;location;lat;lon;timestamp;pressure;altitude;pressure_sealevel;temperature;humidity
57442;BME280;43284;47.042;15.498;2023-03-23T00:00:09;96837.88;;;6.43;77.40
57442;BME280;43284;47.042;15.498;2023-03-23T00:02:35;96836.19;;;6.42;77.71
57442;BME280;43284;47.042;15.498;2023-03-23T00:05:04;96839.78;;;6.37;78.19
57442;BME280;43284;47.042;15.498;2023-03-23T00:07:32;96835.34;;;6.41;77.35
57442;BME280;43284;47.042;15.498;2023-03-23T00:09:59;96840.53;;;6.41;76.84
57442;BME280;43284;47.042;15.498;2023-03-23T00:12:29;96831.34;;;6.32;77.81
57442;BME280;43284;47.042;15.498;2023-03-23T00:15:06;96831.34;;;6.32;77.20
57442;BME280;43284;47.042;15.498;2023-03-23T00:17:32;96832.22;;;6.31;77.04
57442;BME280;43284;47.042;15.498;2023-03-23T00:19:59;96836.59;;;6.31;77.13
57442;BME280;43284;47.042;15.498;2023-03-23T00:22:27;96827.94;;;6.30;76.92
57442;BME280;43284;47.042;15.498;2023-03-23T00:24:54;96829.94;;;6.24;77.45
57442;BME280;43284;47.042;15.498;2023-03-23T00:27:20;96829.22;;;6.18;77.64
57442;BME280;43284;47.042;15.498;2023-03-23T00:29:50;96821.63;;;6.14;78.00
57442;BME280;43284;47.042;15.498;2023-03-23T00:32:23;96826.19;;;6.07;78.48
57442;BME280;43284;47.042;15.498;2023-03-23T00:34:56;96838.78;;;5.93;78.83
57442;BME280;43284;47.042;15.498;2023-03-23T00:37:24;96840.16;;;6.03;79.56
57442;BME280;43284;47.042;15.498;2023-03-23T00:39:50;96831.59;;;6.01;79.06
57442;BME280;43284;47.042;15.498;2023-03-23T00:42:17;96830.06;;;5.95;79.34
57442;BME280;43284;47.042;15.498;2023-03-23T00:44:43;96826.66;;;5.95;79.22
57442;BME280;43284;47.042;15.498;2023-03-23T00:47:10;96828.31;;;5.96;79.44
57442;BME280;43284;47.042;15.498;2023-03-23T00:49:36;96832.72;;;5.92;79.68
57442;BME280;43284;47.042;15.498;2023-03-23T00:52:03;96827.63;;;5.91;79.30
57442;BME280;43284;47.042;15.498;2023-03-23T00:54:30;96821.59;;;5.90;79.41
57442;BME280;43284;47.042;15.498;2023-03-23T00:56:56;96821.59;;;5.90;79.57
57442;BME280;43284;47.042;15.498;2023-03-23T00:59:22;96811.25;;;5.89;79.26
57442;BME280;43284;47.042;15.498;2023-03-23T01:01:49;96817.34;;;5.88;79.25
57442;BME280;43284;47.042;15.498;2023-03-23T01:04:15;96817.50;;;5.83;79.69
57442;BME280;43284;47.042;15.498;2023-03-23T01:06:43;96809.88;;;5.78;79.99
57442;BME280;43284;47.042;15.498;2023-03-23T01:09:12;96800.41;;;5.77;79.88
57442;BME280;43284;47.042;15.498;2023-03-23T01:11:43;96802.28;;;5.74;79.90
57442;BME280;43284;47.042;15.498;2023-03-23T01:14:09;96797.28;;;5.68;80.63
57442;BME280;43284;47.042;15.498;2023-03-23T01:16:35;96804.19;;;5.69;80.34
57442;BME280;43284;47.042;15.498;2023-03-23T01:19:01;96798.19;;;5.67;79.64
57442;BME280;43284;47.042;15.498;2023-03-23T01:21:27;96802.63;;;5.63;80.08
57442;BME280;43284;47.042;15.498;2023-03-23T01:23:52;96801.00;;;5.61;80.83
57442;BME280;43284;47.042;15.498;2023-03-23T01:26:21;96797.81;;;5.52;80.00
57442;BME280;43284;47.042;15.498;2023-03-23T01:28:47;96792.59;;;5.54;81.13
57442;BME280;43284;47.042;15.498;2023-03-23T01:31:19;96797.09;;;5.49;81.01
57442;BME280;43284;47.042;15.498;2023-03-23T01:33:45;96797.94;;;5.49;80.74
57442;BME280;43284;47.042;15.498;2023-03-23T01:36:16;96795.38;;;5.48;80.33
57442;BME280;43284;47.042;15.498;2023-03-23T01:38:43;96793.78;;;5.44;80.87
57442;BME280;43284;47.042;15.498;2023-03-23T01:41:10;96793.00;;;5.42;81.24
57442;BME280;43284;47.042;15.498;2023-03-23T01:43:52;96791.72;;;5.28;81.37
57442;BME280;43284;47.042;15.498;2023-03-23T01:46:18;96788.19;;;5.31;82.01
57442;BME280;43284;47.042;15.498;2023-03-23T01:48:44;96783.00;;;5.31;81.79
57442;BME280;43284;47.042;15.498;2023-03-23T01:51:14;96777.00;;;5.29;81.54
57442;BME280;43284;47.042;15.498;2023-03-23T01:53:52;96780.53;;;5.28;82.33
57442;BME280;43284;47.042;15.498;2023-03-23T01:56:22;96778.03;;;5.25;82.58
57442;BME280;43284;47.042;15.498;2023-03-23T01:58:53;96766.81;;;5.24;82.50
57442;BME280;43284;47.042;15.498;2023-03-23T02:01:20;96771.16;;;5.24;82.20
57442;BME280;43284;47.042;15.498;2023-03-23T02:03:47;96775.44;;;5.25;81.81
57442;BME280;43284;47.042;15.498;2023-03-23T02:06:16;96770.41;;;5.20;82.20
57442;BME280;43284;47.042;15.498;2023-03-23T02:08:43;96779.13;;;5.18;82.11
57442;BME280;43284;47.042;15.498;2023-03-23T02:11:14;96774.09;;;5.13;82.28
57442;BME280;43284;47.042;15.498;2023-03-23T02:13:41;96773.22;;;5.14;82.22
57442;BME280;43284;47.042;15.498;2023-03-23T02:16:17;96775.00;;;5.12;82.17
57442;BME280;43284;47.042;15.498;2023-03-23T02:24:19;96780.84;;;4.92;82.63
57442;BME280;43284;47.042;15.498;2023-03-23T02:27:34;96782.63;;;4.90;83.73
57442;BME280;43284;47.042;15.498;2023-03-23T02:36:11;96777.47;;;4.90;83.19
57442;BME280;43284;47.042;15.498;2023-03-23T02:38:42;96777.00;;;4.77;83.45
57442;BME280;43284;47.042;15.498;2023-03-23T02:41:10;96779.66;;;4.74;85.61
57442;BME280;43284;47.042;15.498;2023-03-23T02:43:41;96781.41;;;4.73;85.02
57442;BME280;43284;47.042;15.498;2023-03-23T02:46:10;96779.66;;;4.74;84.88
57442;BME280;43284;47.042;15.498;2023-03-23T02:48:38;96777.84;;;4.78;84.48
57442;BME280;43284;47.042;15.498;2023-03-23T02:51:07;96787.44;;;4.74;85.06
57442;BME280;43284;47.042;15.498;2023-03-23T02:53:37;96779.78;;;4.71;85.09
57442;BME280;43284;47.042;15.498;2023-03-23T02:56:06;96780.75;;;4.67;85.02
57442;BME280;43284;47.042;15.498;2023-03-23T02:58:33;96774.63;;;4.69;85.02
57442;BME280;43284;47.042;15.498;2023-03-23T03:00:59;96769.50;;;4.68;85.23
57442;BME280;43284;47.042;15.498;2023-03-23T03:03:29;96769.59;;;4.65;85.17
57442;BME280;43284;47.042;15.498;2023-03-23T03:06:14;96772.22;;;4.63;84.63
57442;BME280;43284;47.042;15.498;2023-03-23T03:08:58;96772.31;;;4.62;85.70
57442;BME280;43284;47.042;15.498;2023-03-23T03:11:29;96775.78;;;4.61;84.85
57442;BME280;43284;47.042;15.498;2023-03-23T03:14:09;96773.28;;;4.58;85.30
57442;BME280;43284;47.042;15.498;2023-03-23T03:16:52;96778.47;;;4.58;85.79
57442;BME280;43284;47.042;15.498;2023-03-23T03:21:52;96778.53;;;4.54;85.41
57442;BME280;43284;47.042;15.498;2023-03-23T03:24:20;96776.06;;;4.51;85.29
57442;BME280;43284;47.042;15.498;2023-03-23T03:26:50;96775.22;;;4.51;85.62
57442;BME280;43284;47.042;15.498;2023-03-23T03:29:22;96774.38;;;4.50;85.39
57442;BME280;43284;47.042;15.498;2023-03-23T03:31:50;96770.13;;;4.48;85.63
57442;BME280;43284;47.042;15.498;2023-03-23T03:34:21;96768.34;;;4.50;85.73
57442;BME280;43284;47.042;15.498;2023-03-23T03:36:51;96775.28;;;4.48;85.55
57442;BME280;43284;47.042;15.498;2023-03-23T03:39:18;96772.13;;;4.40;85.75
57442;BME280;43284;47.042;15.498;2023-03-23T03:41:45;96773.91;;;4.38;85.63
57442;BME280;43284;47.042;15.498;2023-03-23T03:44:11;96774.72;;;4.40;86.05
57442;BME280;43284;47.042;15.498;2023-03-23T03:46:37;96783.38;;;4.37;85.69
57442;BME280;43284;47.042;15.498;2023-03-23T03:49:06;96786.88;;;4.36;86.00
57442;BME280;43284;47.042;15.498;2023-03-23T03:51:32;96786.13;;;4.32;85.94
57442;BME280;43284;47.042;15.498;2023-03-23T03:53:58;96781.81;;;4.33;85.90
57442;BME280;43284;47.042;15.498;2023-03-23T03:56:24;96785.31;;;4.30;85.77
57442;BME280;43284;47.042;15.498;2023-03-23T03:58:51;96786.31;;;4.26;85.71
57442;BME280;43284;47.042;15.498;2023-03-23T04:01:19;96782.97;;;4.23;85.92
57442;BME280;43284;47.042;15.498;2023-03-23T04:03:46;96788.13;;;4.23;86.34
57442;BME280;43284;47.042;15.498;2023-03-23T04:06:12;96799.38;;;4.22;86.30
57442;BME280;43284;47.042;15.498;2023-03-23T04:08:38;96795.97;;;4.20;86.62
57442;BME280;43284;47.042;15.498;2023-03-23T04:11:07;96798.75;;;4.13;86.88
57442;BME280;43284;47.042;15.498;2023-03-23T04:13:33;96804.91;;;4.09;86.25
57442;BME280;43284;47.042;15.498;2023-03-23T04:15:58;96798.91;;;4.09;86.13
57442;BME280;43284;47.042;15.498;2023-03-23T04:18:25;96802.31;;;4.09;86.80
57442;BME280;43284;47.042;15.498;2023-03-23T04:20:51;96794.50;;;4.11;87.04
57442;BME280;43284;47.042;15.498;2023-03-23T04:23:19;96795.38;;;4.11;86.98
57442;BME280;43284;47.042;15.498;2023-03-23T04:25:47;96799.63;;;4.12;86.72
57442;BME280;43284;47.042;15.498;2023-03-23T04:28:15;96796.31;;;4.09;86.07
57442;BME280;43284;47.042;15.498;2023-03-23T04:30:42;96798.91;;;4.09;86.31
57442;BME280;43284;47.042;15.498;2023-03-23T04:33:09;96800.69;;;4.07;86.37
57442;BME280;43284;47.042;15.498;2023-03-23T04:35:43;96797.28;;;4.05;87.07
57442;BME280;43284;47.042;15.498;2023-03-23T04:38:11;96802.47;;;4.05;87.12
57442;BME280;43284;47.042;15.498;2023-03-23T04:40:39;96801.56;;;4.06;86.88
57442;BME280;43284;47.042;15.498;2023-03-23T04:43:05;96811.94;;;4.04;86.48
57442;BME280;43284;47.042;15.498;2023-03-23T04:45:35;96806.81;;;4.03;86.98
57442;BME280;43284;47.042;15.498;2023-03-23T04:48:03;96805.25;;;3.97;87.00
57442;BME280;43284;47.042;15.498;2023-03-23T04:50:31;96807.84;;;3.97;87.28
57442;BME280;43284;47.042;15.498;2023-03-23T04:53:02;96801.81;;;3.97;86.72
57442;BME280;43284;47.042;15.498;2023-03-23T04:55:34;96802.69;;;3.96;87.35
57442;BME280;43284;47.042;15.498;2023-03-23T04:58:05;96802.66;;;3.97;87.81
57442;BME280;43284;47.042;15.498;2023-03-23T05:00:34;96801.94;;;3.92;87.12
57442;BME280;43284;47.042;15.498;2023-03-23T05:03:00;96800.97;;;3.96;88.21
57442;BME280;43284;47.042;15.498;2023-03-23T05:05:27;96799.28;;;3.95;87.79
57442;BME280;43284;47.042;15.498;2023-03-23T05:07:54;96808.78;;;3.95;87.48
57442;BME280;43284;47.042;15.498;2023-03-23T05:10:21;96802.75;;;3.94;87.46
57442;BME280;43284;47.042;15.498;2023-03-23T05:12:47;96800.91;;;3.98;87.90
57442;BME280;43284;47.042;15.498;2023-03-23T05:15:14;96806.16;;;3.96;88.11
57442;BME280;43284;47.042;15.498;2023-03-23T05:17:41;96808.78;;;3.95;88.44
57442;BME280;43284;47.042;15.498;2023-03-23T05:20:13;96812.16;;;3.97;88.59
57442;BME280;43284;47.042;15.498;2023-03-23T05:22:41;96814.59;;;4.03;88.65
57442;BME280;43284;47.042;15.498;2023-03-23T05:25:07;96817.09;;;4.04;88.31
57442;BME280;43284;47.042;15.498;2023-03-23T05:27:39;96811.94;;;4.04;89.03
57442;BME280;43284;47.042;15.498;2023-03-23T05:30:09;96813.53;;;4.08;88.48
57442;BME280;43284;47.042;15.498;2023-03-23T05:32:35;96819.53;;;4.10;88.75
57442;BME280;43284;47.042;15.498;2023-03-23T05:35:03;96817.75;;;4.12;89.13
57442;BME280;43284;47.042;15.498;2023-03-23T05:37:29;96815.97;;;4.15;89.12
57442;BME280;43284;47.042;15.498;2023-03-23T05:39:58;96820.13;;;4.20;89.50
57442;BME280;43284;47.042;15.498;2023-03-23T05:42:29;96829.53;;;4.23;89.65
57442;BME280;43284;47.042;15.498;2023-03-23T05:44:54;96826.03;;;4.24;89.97
57442;BME280;43284;47.042;15.498;2023-03-23T05:47:20;96836.25;;;4.28;89.98
57442;BME280;43284;47.042;15.498;2023-03-23T05:49:46;96832.75;;;4.31;89.86
57442;BME280;43284;47.042;15.498;2023-03-23T05:52:12;96830.91;;;4.34;90.66
57442;BME280;43284;47.042;15.498;2023-03-23T05:54:37;96837.66;;;4.40;90.25
57442;BME280;43284;47.042;15.498;2023-03-23T05:57:03;96837.50;;;4.45;90.52
57442;BME280;43284;47.042;15.498;2023-03-23T05:59:29;96835.59;;;4.51;90.39
57442;BME280;43284;47.042;15.498;2023-03-23T06:01:55;96844.03;;;4.58;90.31
57442;BME280;43284;47.042;15.498;2023-03-23T06:04:20;96842.94;;;4.65;90.54
57442;BME280;43284;47.042;15.498;2023-03-23T06:06:50;96842.72;;;4.73;90.55
57442;BME280;43284;47.042;15.498;2023-03-23T06:09:20;96846.75;;;4.82;90.21
57442;BME280;43284;47.042;15.498;2023-03-23T06:11:46;96845.66;;;4.89;90.02
57442;BME280;43284;47.042;15.498;2023-03-23T06:14:13;96847.13;;;4.98;89.97
57442;BME280;43284;47.042;15.498;2023-03-23T06:16:39;96845.16;;;5.06;90.74
57442;BME280;43284;47.042;15.498;2023-03-23T06:19:04;96846.69;;;5.11;90.29
57442;BME280;43284;47.042;15.498;2023-03-23T06:21:31;96847.31;;;5.18;90.39
57442;BME280;43284;47.042;15.498;2023-03-23T06:23:57;96853.22;;;5.23;89.90
57442;BME280;43284;47.042;15.498;2023-03-23T06:26:29;96846.16;;;5.28;89.43
57442;BME280;43284;47.042;15.498;2023-03-23T06:28:56;96852.78;;;5.37;89.34
57442;BME280;43284;47.042;15.498;2023-03-23T06:31:23;96851.66;;;5.44;88.96
57442;BME280;43284;47.042;15.498;2023-03-23T06:33:49;96859.88;;;5.57;88.27
57442;BME280;43284;47.042;15.498;2023-03-23T06:36:15;96860.38;;;5.68;85.83
57442;BME280;43284;47.042;15.498;2023-03-23T06:38:42;96859.31;;;5.74;85.90
57442;BME280;43284;47.042;15.498;2023-03-23T06:41:07;96858.19;;;5.81;85.38
57442;BME280;43284;47.042;15.498;2023-03-23T06:43:34;96857.09;;;5.88;84.18
57442;BME280;43284;47.042;15.498;2023-03-23T06:46:01;96855.09;;;5.96;84.38
57442;BME280;43284;47.042;15.498;2023-03-23T06:48:27;96856.59;;;6.04;84.15
57442;BME280;43284;47.042;15.498;2023-03-23T06:50:53;96858.91;;;6.11;83.81
57442;BME280;43284;47.042;15.498;2023-03-23T06:53:19;96856.09;;;6.17;83.30
57442;BME280;43284;47.042;15.498;2023-03-23T06:55:46;96850.69;;;6.24;82.91
57442;BME280;43284;47.042;15.498;2023-03-23T06:58:12;96853.06;;;6.30;83.03
57442;BME280;43284;47.042;15.498;2023-03-23T07:00:38;96858.81;;;6.38;82.35
57442;BME280;43284;47.042;15.498;2023-03-23T07:03:06;96854.94;;;6.50;82.15
57442;BME280;43284;47.042;15.498;2023-03-23T07:05:33;96865.00;;;6.57;82.08
57442;BME280;43284;47.042;15.498;2023-03-23T07:08:02;96865.53;;;6.67;82.04
57442;BME280;43284;47.042;15.498;2023-03-23T07:10:28;96859.66;;;6.84;81.98
57442;BME280;43284;47.042;15.498;2023-03-23T07:12:53;96864.34;;;6.98;81.79
57442;BME280;43284;47.042;15.498;2023-03-23T07:15:19;96856.06;;;7.10;81.45
57442;BME280;43284;47.042;15.498;2023-03-23T07:17:45;96862.50;;;7.44;81.23
57442;BME280;43284;47.042;15.498;2023-03-23T07:20:12;96861.03;;;7.59;80.75
57442;BME280;43284;47.042;15.498;2023-03-23T07:22:39;96864.28;;;7.64;79.64
57442;BME280;43284;47.042;15.498;2023-03-23T07:25:05;96857.34;;;7.85;78.26
57442;BME280;43284;47.042;15.498;2023-03-23T07:27:30;96864.81;;;7.93;78.31
57442;BME280;43284;47.042;15.498;2023-03-23T07:29:56;96864.41;;;8.02;77.48
57442;BME280;43284;47.042;15.498;2023-03-23T07:32:23;96860.31;;;8.17;77.55
57442;BME280;43284;47.042;15.498;2023-03-23T07:34:49;96860.59;;;8.30;76.62
57442;BME280;43284;47.042;15.498;2023-03-23T07:37:15;96855.72;;;8.42;76.28
57442;BME280;43284;47.042;15.498;2023-03-23T07:39:41;96854.81;;;8.62;76.32
57442;BME280;43284;47.042;15.498;2023-03-23T07:42:08;96854.84;;;8.81;75.53
57442;BME280;43284;47.042;15.498;2023-03-23T07:44:34;96860.38;;;8.93;74.99
57442;BME280;43284;47.042;15.498;2023-03-23T07:46:59;96856.56;;;9.00;74.33
57442;BME280;43284;47.042;15.498;2023-03-23T07:49:25;96857.09;;;9.25;74.56
57442;BME280;43284;47.042;15.498;2023-03-23T07:51:52;96857.56;;;9.34;71.40
57442;BME280;43284;47.042;15.498;2023-03-23T07:54:18;96850.13;;;9.43;72.14
57442;BME280;43284;47.042;15.498;2023-03-23T07:56:44;96856.06;;;9.64;71.27
57442;BME280;43284;47.042;15.498;2023-03-23T07:59:11;96851.75;;;9.81;72.23
57442;BME280;43284;47.042;15.498;2023-03-23T08:01:38;96857.56;;;10.03;69.86
57442;BME280;43284;47.042;15.498;2023-03-23T08:04:05;96857.78;;;10.16;69.20
57442;BME280;43284;47.042;15.498;2023-03-23T08:06:34;96854.53;;;10.28;69.23
57442;BME280;43284;47.042;15.498;2023-03-23T08:09:01;96854.84;;;10.40;69.14
57442;BME280;43284;47.042;15.498;2023-03-23T08:11:32;96847.44;;;10.48;68.30
57442;BME280;43284;47.042;15.498;2023-03-23T08:13:58;96849.22;;;10.47;67.99
57442;BME280;43284;47.042;15.498;2023-03-23T08:16:23;96847.72;;;10.59;68.19
57442;BME280;43284;47.042;15.498;2023-03-23T08:18:49;96848.16;;;10.67;67.40
57442;BME280;43284;47.042;15.498;2023-03-23T08:21:15;96838.34;;;10.71;67.55
57442;BME280;43284;47.042;15.498;2023-03-23T08:23:40;96841.41;;;10.79;67.33
57442;BME280;43284;47.042;15.498;2023-03-23T08:26:08;96840.06;;;10.88;68.00
57442;BME280;43284;47.042;15.498;2023-03-23T08:28:34;96840.16;;;11.02;66.74
57442;BME280;43284;47.042;15.498;2023-03-23T08:31:06;96836.78;;;11.00;65.90
57442;BME280;43284;47.042;15.498;2023-03-23T08:33:32;96835.09;;;11.15;66.05
57442;BME280;43284;47.042;15.498;2023-03-23T08:35:59;96830.44;;;11.20;64.94
57442;BME280;43284;47.042;15.498;2023-03-23T08:38:26;96836.06;;;11.28;64.61
57442;BME280;43284;47.042;15.498;2023-03-23T08:41:00;96833.34;;;11.30;65.41
57442;BME280;43284;47.042;15.498;2023-03-23T08:43:28;96828.31;;;11.57;64.78
57442;BME280;43284;47.042;15.498;2023-03-23T08:45:54;96830.59;;;11.63;64.49
57442;BME280;43284;47.042;15.498;2023-03-23T08:48:20;96827.84;;;11.81;63.67
57442;BME280;43284;47.042;15.498;2023-03-23T08:50:46;96835.66;;;11.97;63.62
57442;BME280;43284;47.042;15.498;2023-03-23T08:53:12;96834.63;;;11.99;62.38
57442;BME280;43284;47.042;15.498;2023-03-23T08:55:38;96838.28;;;12.11;62.11
57442;BME280;43284;47.042;15.498;2023-03-23T08:58:05;96842.59;;;12.26;62.11
57442;BME280;43284;47.042;15.498;2023-03-23T09:00:31;96839.59;;;12.32;61.35
57442;BME280;43284;47.042;15.498;2023-03-23T09:02:58;96839.31;;;12.37;60.82
57442;BME280;43284;47.042;15.498;2023-03-23T09:05:26;96839.03;;;12.42;60.73
57442;BME280;43284;47.042;15.498;2023-03-23T09:07:55;96833.81;;;12.56;60.81
57442;BME280;43284;47.042;15.498;2023-03-23T09:10:27;96835.47;;;12.71;61.64
57442;BME280;43284;47.042;15.498;2023-03-23T09:12:55;96832.63;;;12.89;60.55
57442;BME280;43284;47.042;15.498;2023-03-23T09:15:22;96831.13;;;12.99;58.35
57442;BME280;43284;47.042;15.498;2023-03-23T09:17:50;96833.06;;;13.10;58.17
57442;BME280;43284;47.042;15.498;2023-03-23T09:20:18;96842.69;;;13.09;58.29
57442;BME280;43284;47.042;15.498;2023-03-23T09:22:49;96841.63;;;13.41;59.91
57442;BME280;43284;47.042;15.498;2023-03-23T09:25:17;96831.69;;;13.31;57.99
57442;BME280;43284;47.042;15.498;2023-03-23T09:27:46;96840.25;;;13.48;57.71
57442;BME280;43284;47.042;15.498;2023-03-23T09:30:13;96834.22;;;13.60;58.21
57442;BME280;43284;47.042;15.498;2023-03-23T09:32:45;96837.69;;;13.60;56.12
57442;BME280;43284;47.042;15.498;2023-03-23T09:35:11;96826.88;;;13.65;57.23
57442;BME280;43284;47.042;15.498;2023-03-23T09:37:39;96830.41;;;13.64;56.65
57442;BME280;43284;47.042;15.498;2023-03-23T09:40:09;96829.50;;;13.65;57.01
57442;BME280;43284;47.042;15.498;2023-03-23T09:48:17;96818.31;;;14.01;56.72
57442;BME280;43284;47.042;15.498;2023-03-23T09:50:48;96814.09;;;14.12;55.47
57442;BME280;43284;47.042;15.498;2023-03-23T09:53:24;96811.25;;;14.15;55.99
57442;BME280;43284;47.042;15.498;2023-03-23T09:55:53;96804.63;;;14.22;55.44
57442;BME280;43284;47.042;15.498;2023-03-23T10:03:44;96797.34;;;15.25;55.63
57442;BME280;43284;47.042;15.498;2023-03-23T10:06:12;96791.91;;;15.39;54.53
57442;BME280;43284;47.042;15.498;2023-03-23T10:08:52;96799.34;;;15.45;54.54
57442;BME280;43284;47.042;15.498;2023-03-23T10:11:33;96796.94;;;15.42;52.39
57442;BME280;43284;47.042;15.498;2023-03-23T10:22:31;96782.34;;;15.50;50.80
57442;BME280;43284;47.042;15.498;2023-03-23T10:28:11;96766.56;;;15.50;51.07
57442;BME280;43284;47.042;15.498;2023-03-23T10:30:51;96765.47;;;15.52;50.84
57442;BME280;43284;47.042;15.498;2023-03-23T10:33:26;96758.47;;;15.64;50.94
57442;BME280;43284;47.042;15.498;2023-03-23T10:38:57;96751.81;;;15.82;50.73
57442;BME280;43284;47.042;15.498;2023-03-23T10:41:23;96753.16;;;15.99;52.30
57442;BME280;43284;47.042;15.498;2023-03-23T10:43:49;96758.94;;;16.27;50.75
57442;BME280;43284;47.042;15.498;2023-03-23T10:49:01;96741.78;;;16.55;50.65
57442;BME280;43284;47.042;15.498;2023-03-23T10:51:34;96747.41;;;16.84;50.79
57442;BME280;43284;47.042;15.498;2023-03-23T10:54:02;96748.47;;;16.71;48.45
57442;BME280;43284;47.042;15.498;2023-03-23T10:56:39;96748.59;;;16.80;48.81
57442;BME280;43284;47.042;15.498;2023-03-23T10:59:34;96738.13;;;17.01;48.71
57442;BME280;43284;47.042;15.498;2023-03-23T11:02:15;96736.19;;;17.03;48.89
57442;BME280;43284;47.042;15.498;2023-03-23T11:04:46;96746.41;;;17.29;47.18
57442;BME280;43284;47.042;15.498;2023-03-23T11:07:21;96742.94;;;17.28;47.74
57442;BME280;43284;47.042;15.498;2023-03-23T11:09:54;96741.38;;;17.26;47.51
57442;BME280;43284;47.042;15.498;2023-03-23T11:12:21;96737.09;;;17.46;48.96
57442;BME280;43284;47.042;15.498;2023-03-23T11:14:48;96746.25;;;17.63;47.72
57442;BME280;43284;47.042;15.498;2023-03-23T11:17:25;96742.97;;;17.70;46.95
57442;BME280;43284;47.042;15.498;2023-03-23T11:19:52;96736.56;;;17.84;45.68
57442;BME280;43284;47.042;15.498;2023-03-23T11:24:53;96734.34;;;17.89;45.38
57442;BME280;43284;47.042;15.498;2023-03-23T11:27:19;96740.38;;;18.01;44.47
57442;BME280;43284;47.042;15.498;2023-03-23T11:32:15;96742.72;;;18.25;44.54
57442;BME280;43284;47.042;15.498;2023-03-23T11:34:44;96738.91;;;18.08;45.90
57442;BME280;43284;47.042;15.498;2023-03-23T11:39:59;96738.69;;;17.79;45.21
57442;BME280;43284;47.042;15.498;2023-03-23T11:42:35;96731.81;;;17.88;44.43
57442;BME280;43284;47.042;15.498;2023-03-23T11:45:21;96725.31;;;17.71;44.77
57442;BME280;43284;47.042;15.498;2023-03-23T11:48:20;96731.75;;;17.57;45.42
57442;BME280;43284;47.042;15.498;2023-03-23T11:51:15;96731.75;;;17.57;45.16
57442;BME280;43284;47.042;15.498;2023-03-23T11:56:37;96729.75;;;17.49;45.85
57442;BME280;43284;47.042;15.498;2023-03-23T11:59:10;96725.50;;;17.58;47.55
57442;BME280;43284;47.042;15.498;2023-03-23T12:04:27;96713.28;;;18.09;44.26
57442;BME280;43284;47.042;15.498;2023-03-23T12:07:11;96718.66;;;18.28;44.32
57442;BME280;43284;47.042;15.498;2023-03-23T12:15:54;96720.25;;;18.81;45.42
57442;BME280;43284;47.042;15.498;2023-03-23T12:22:02;96710.22;;;19.04;43.96
57442;BME280;43284;47.042;15.498;2023-03-23T12:35:37;96694.16;;;19.74;44.01
57442;BME280;43284;47.042;15.498;2023-03-23T12:38:21;96680.31;;;19.80;42.29
57442;BME280;43284;47.042;15.498;2023-03-23T12:40:52;96692.06;;;19.68;42.40
57442;BME280;43284;47.042;15.498;2023-03-23T12:43:32;96692.91;;;19.68;43.21
57442;BME280;43284;47.042;15.498;2023-03-23T12:49:38;96675.59;;;19.84;41.70
57442;BME280;43284;47.042;15.498;2023-03-23T12:51:49;96672.69;;;20.05;41.24
57442;BME280;43284;47.042;15.498;2023-03-23T12:54:23;96671.09;;;19.84;41.39
57442;BME280;43284;47.042;15.498;2023-03-23T12:59:45;96670.97;;;19.86;41.85
57442;BME280;43284;47.042;15.498;2023-03-23T13:02:29;96655.44;;;20.01;41.30
57442;BME280;43284;47.042;15.498;2023-03-23T13:08:03;96642.28;;;20.54;41.21
57442;BME280;43284;47.042;15.498;2023-03-23T13:10:38;96640.59;;;20.81;40.78
57442;BME280;43284;47.042;15.498;2023-03-23T13:13:13;96632.34;;;20.84;40.08
57442;BME280;43284;47.042;15.498;2023-03-23T13:16:36;96642.88;;;20.48;39.87
57442;BME280;43284;47.042;15.498;2023-03-23T13:21:41;96623.31;;;20.49;40.24
57442;BME280;43284;47.042;15.498;2023-03-23T13:24:15;96626.31;;;20.36;40.39
57442;BME280;43284;47.042;15.498;2023-03-23T13:26:43;96622.63;;;20.20;40.79
57442;BME280;43284;47.042;15.498;2023-03-23T13:29:14;96628.78;;;20.20;41.55
57442;BME280;43284;47.042;15.498;2023-03-23T13:31:43;96631.59;;;20.19;40.02
57442;BME280;43284;47.042;15.498;2023-03-23T13:36:43;96620.41;;;20.25;41.13
57442;BME280;43284;47.042;15.498;2023-03-23T13:39:21;96617.97;;;20.59;41.80
57442;BME280;43284;47.042;15.498;2023-03-23T13:42:30;96612.97;;;20.74;40.64
57442;BME280;43284;47.042;15.498;2023-03-23T13:45:21;96615.72;;;20.82;39.91
57442;BME280;43284;47.042;15.498;2023-03-23T13:47:48;96608.72;;;20.81;38.52
57442;BME280;43284;47.042;15.498;2023-03-23T13:52:48;96619.19;;;20.83;38.43
57442;BME280;43284;47.042;15.498;2023-03-23T14:06:12;96620.69;;;21.21;36.18
57442;BME280;43284;47.042;15.498;2023-03-23T14:11:09;96626.94;;;20.48;36.14
57442;BME280;43284;47.042;15.498;2023-03-23T14:16:17;96621.47;;;20.77;35.67
57442;BME280;43284;47.042;15.498;2023-03-23T14:19:13;96613.13;;;20.90;35.25
57442;BME280;43284;47.042;15.498;2023-03-23T14:21:42;96617.97;;;20.59;35.72
57442;BME280;43284;47.042;15.498;2023-03-23T14:24:20;96620.06;;;20.55;34.82
57442;BME280;43284;47.042;15.498;2023-03-23T14:26:51;96625.34;;;20.83;34.78
57442;BME280;43284;47.042;15.498;2023-03-23T14:29:19;96626.72;;;20.69;34.90
57442;BME280;43284;47.042;15.498;2023-03-23T14:31:52;96619.94;;;20.75;34.64
57442;BME280;43284;47.042;15.498;2023-03-23T14:34:20;96623.22;;;20.87;34.16
57442;BME280;43284;47.042;15.498;2023-03-23T14:36:47;96621.03;;;20.82;34.25
57442;BME280;43284;47.042;15.498;2023-03-23T14:42:16;96617.91;;;20.87;35.17
57442;BME280;43284;47.042;15.498;2023-03-23T14:44:45;96619.56;;;21.06;34.14
57442;BME280;43284;47.042;15.498;2023-03-23T14:47:27;96614.94;;;20.72;35.71
57442;BME280;43284;47.042;15.498;2023-03-23T14:49:59;96617.75;;;20.88;36.57
57442;BME280;43284;47.042;15.498;2023-03-23T14:52:28;96616.16;;;20.95;35.36
57442;BME280;43284;47.042;15.498;2023-03-23T14:54:54;96612.91;;;21.02;35.76
57442;BME280;43284;47.042;15.498;2023-03-23T14:57:29;96612.00;;;20.93;35.38
57442;BME280;43284;47.042;15.498;2023-03-23T14:59:55;96608.44;;;20.66;36.23